Latest Coastal Weather Observations for Lucinda

IDQ60701

Issued at 12:05 am EST Tuesday 23 September 2014 (issued every 10 minutes, with the page automatically refreshed every 10 minutes)

About coastal observations | Map of coastal stations | Coastal observations for QLD | Marine services | Other Formats
Station Details ID: 032141 Name: LUCINDA POINT Lat: -18.52 Lon: 146.39 Height: 10.0 m
Data from the previous 72 hours. | See also: Recent months for locations in Queensland
Date/Time
EST
Temp

°C
Wind Pressure Rain
since 9am
mm
Weather Cloud Vis
km
Sea
Height
m
Swell
Dir
 
Speed
knots
Gust
knots
hPa Trend Height
m
Period
s
Dir
23/12:00am 23.5 ESE 12 18 1017.1 - 0.0 - - - - - - -
 
Date/Time
EST
Temp

°C
Wind Pressure Rain
since 9am
mm
Weather Cloud Vis
km
Sea
Height
m
Swell
Dir
 
Speed
knots
Gust
knots
hPa Trend Height
m
Period
s
Dir
22/11:30pm 23.7 ESE 11 19 1017.4 - 0.0 - - - - - - -
22/11:00pm 23.6 ESE 11 19 1017.8 - 0.0 - - - - - - -
22/10:30pm 23.5 SE 12 20 1017.5 - 0.0 - - - - - - -
22/10:00pm 23.5 ESE 12 20 1017.7 - 0.0 - - - - - - -
22/09:30pm 23.5 ESE 11 17 1017.7 - 0.0 - - - - - - -
22/09:00pm 23.7 ESE 12 17 1017.6 - 0.0 - - - - - - -
22/08:30pm 23.7 ESE 12 20 1017.4 - 0.0 - - - - - - -
22/08:00pm 23.7 E 13 20 1016.8 - 0.0 - - - - - - -
22/07:30pm 23.7 ESE 13 20 1016.8 - 0.0 - - - - - - -
22/07:00pm 23.8 ESE 13 21 1016.4 - 0.0 - - - - - - -
22/06:30pm 23.5 ESE 14 20 1016.1 - 0.0 - - - - - - -
22/06:00pm 23.8 ESE 13 17 1015.6 - 0.0 - - - - - - -
22/05:30pm 24.0 ESE 13 17 1015.4 - 0.0 - - - - - - -
22/05:00pm 24.2 ESE 12 16 1015.0 - 0.0 - - - - - - -
22/04:30pm 24.3 ESE 13 18 1014.8 - 0.0 - - - - - - -
22/04:00pm 24.4 E 11 15 1014.8 - 0.0 - - - - - - -
22/03:30pm 24.3 E 10 13 1014.7 - 0.0 - - - - - - -
22/03:00pm 24.5 E 9 11 1014.9 - 0.0 - - - - - - -
22/02:30pm 24.3 ENE 11 14 1015.1 - 0.0 - - - - - - -
22/02:00pm 23.9 ENE 12 15 1015.3 - 0.0 - - - - - - -
22/01:30pm 24.5 E 10 12 1015.7 - 0.0 - - - - - - -
22/01:00pm 24.3 NE 11 13 1016.3 - 0.0 - - - - - - -
22/12:30pm 24.3 ENE 10 12 1016.6 - 0.0 - - - - - - -
22/12:00pm 24.6 ENE 10 12 1017.0 - 0.0 - - - - - - -
22/11:30am 24.8 ENE 8 11 1017.6 - 0.0 - - - - - - -
22/11:00am 24.7 ENE 9 11 1017.8 - 0.0 - - - - - - -
22/10:30am 24.4 ENE 8 11 1018.1 - 0.0 - - - - - - -
22/10:00am 24.4 ENE 10 12 1018.3 - 0.0 - - - - - - -
22/09:30am 24.2 NE 11 13 1018.5 - 0.0 - - - - - - -
22/09:00am 24.1 ENE 11 15 1018.4 - 0.0 - - - - - - -
22/08:30am 24.4 ENE 10 14 1018.3 - 0.0 - - - - - - -
22/08:00am 24.1 ENE 13 16 1017.8 - 0.0 - - - - - - -
22/07:30am 24.1 E 10 13 1017.6 - 0.0 - - - - - - -
22/07:00am 23.6 ENE 13 18 1017.0 - 0.0 - - - - - - -
22/06:30am 23.6 ENE 12 16 1016.8 - 0.0 - - - - - - -
22/06:00am 23.4 E 13 19 1016.6 - 0.0 - - - - - - -
22/05:30am 23.3 E 14 17 1016.3 - 0.0 - - - - - - -
22/05:00am 23.4 E 15 19 1015.9 - 0.0 - - - - - - -
22/04:30am 23.5 E 15 19 1015.5 - 0.0 - - - - - - -
22/04:00am 23.3 E 15 19 1015.5 - 0.0 - - - - - - -
22/03:30am 23.3 E 15 20 1015.5 - 0.0 - - - - - - -
22/03:00am 23.3 E 17 21 1015.7 - 0.0 - - - - - - -
22/02:30am 23.4 ENE 15 22 1016.2 - 0.0 - - - - - - -
22/02:00am 23.3 E 17 22 1016.3 - 0.0 - - - - - - -
22/01:30am 23.5 E 15 21 1016.8 - 0.0 - - - - - - -
22/01:00am 23.6 E 14 18 1017.3 - 0.0 - - - - - - -
22/12:30am 23.4 E 15 20 1017.4 - 0.0 - - - - - - -
22/12:00am 23.7 E 16 20 1017.4 - 0.0 - - - - - - -
 
Date/Time
EST
Temp

°C
Wind Pressure Rain
since 9am
mm
Weather Cloud Vis
km
Sea
Height
m
Swell
Dir
 
Speed
knots
Gust
knots
hPa Trend Height
m
Period
s
Dir
21/11:30pm 23.8 E 16 22 1017.9 - 0.0 - - - - - - -
21/11:00pm 23.6 E 16 22 1018.0 - 0.0 - - - - - - -
21/10:30pm 23.6 E 13 18 1018.2 - 0.0 - - - - - - -
21/10:00pm 23.5 ESE 15 19 1018.3 - 0.0 - - - - - - -
21/09:30pm 23.6 ESE 13 19 1018.3 - 0.0 - - - - - - -
21/09:00pm 23.7 ESE 14 19 1018.2 - 0.0 - - - - - - -
21/08:30pm 23.7 E 12 17 1018.0 - 0.0 - - - - - - -
21/08:00pm 23.8 ESE 14 18 1017.7 - 0.0 - - - - - - -
21/07:30pm 23.7 ESE 12 17 1017.3 - 0.0 - - - - - - -
21/07:00pm 23.7 ESE 12 18 1016.9 - 0.0 - - - - - - -
21/06:30pm 23.8 ESE 15 21 1016.6 - 0.0 - - - - - - -
21/06:00pm 23.8 ESE 14 21 1016.3 - 0.0 - - - - - - -
21/05:30pm 24.1 ESE 12 22 1016.5 - 0.0 - - - - - - -
21/05:00pm 24.2 SE 11 20 1016.5 - 0.0 - - - - - - -
21/04:30pm 24.6 ESE 10 16 1016.4 - 0.0 - - - - - - -
21/04:00pm 25.1 ESE 11 16 1016.5 - 0.0 - - - - - - -
21/03:30pm 25.2 ESE 10 14 1016.2 - 0.0 - - - - - - -
21/03:00pm 25.5 E 7 10 1016.2 - 0.0 - - - - - - -
21/02:30pm 24.6 E 11 13 1016.3 - 0.0 - - - - - - -
21/02:00pm 25.0 E 9 12 1016.5 - 0.0 - - - - - - -
21/01:30pm 24.9 E 10 13 1016.7 - 0.0 - - - - - - -
21/01:00pm 24.8 E 10 12 1017.0 - 0.0 - - - - - - -
21/12:30pm 24.8 ENE 8 11 1017.4 - 0.0 - - - - - - -
21/12:00pm 24.7 ENE 10 12 1017.9 - 0.0 - - - - - - -
21/11:30am 24.9 E 9 13 1018.3 - 0.0 - - - - - - -
21/11:00am 24.7 E 10 13 1018.5 - 0.0 - - - - - - -
21/10:30am 24.6 E 10 13 1018.7 - 0.0 - - - - - - -
21/10:00am 24.3 E 11 14 1018.8 - 0.0 - - - - - - -
21/09:30am 24.4 E 12 15 1018.4 - 0.0 - - - - - - -
21/09:00am 24.4 E 12 15 1018.5 - 0.0 - - - - - - -
21/08:30am 24.3 E 10 13 1018.5 - 0.0 - - - - - - -
21/08:00am 24.2 ESE 10 15 1018.1 - 0.0 - - - - - - -
21/07:30am 23.6 E 11 15 1017.7 - 0.0 - - - - - - -
21/07:00am 23.5 ESE 12 15 1017.4 - 0.0 - - - - - - -
21/06:30am 23.4 ESE 11 15 1017.0 - 0.0 - - - - - - -
21/06:00am 23.4 ESE 12 16 1016.6 - 0.0 - - - - - - -
21/05:30am 23.4 E 7 9 1016.4 - 0.0 - - - - - - -
21/05:00am 23.2 ESE 7 11 1016.1 - 0.0 - - - - - - -
21/04:30am 23.2 ESE 8 11 1015.8 - 0.0 - - - - - - -
21/04:00am 23.2 ESE 11 15 1015.5 - 0.0 - - - - - - -
21/03:30am 23.3 ESE 10 14 1015.6 - 0.0 - - - - - - -
21/03:00am 23.2 ESE 10 14 1015.6 - 0.0 - - - - - - -
21/02:30am 23.2 SE 6 9 1015.8 - 0.0 - - - - - - -
21/02:00am 23.2 SE 6 8 1016.3 - 0.0 - - - - - - -
21/01:30am 23.2 ESE 6 11 1016.8 - 0.0 - - - - - - -
21/01:00am 23.3 ESE 6 9 1017.2 - 0.0 - - - - - - -
21/12:30am 23.5 E 8 11 1017.2 - 0.0 - - - - - - -
21/12:00am 23.6 E 9 11 1017.5 - 0.0 - - - - - - -
 
Date/Time
EST
Temp

°C
Wind Pressure Rain
since 9am
mm
Weather Cloud Vis
km
Sea
Height
m
Swell
Dir
 
Speed
knots
Gust
knots
hPa Trend Height
m
Period
s
Dir
20/11:30pm 23.6 ENE 11 12 1017.5 - 0.0 - - - - - - -
20/11:00pm 23.7 ENE 9 13 1017.5 - 0.0 - - - - - - -
20/10:30pm 23.4 NE 12 15 1017.6 - 0.0 - - - - - - -
20/10:00pm 23.5 NE 12 16 1017.6 - 0.0 - - - - - - -
20/09:30pm 23.7 NE 12 13 1017.3 - 0.0 - - - - - - -
20/09:00pm 23.5 NNE 10 11 1017.0 - 0.0 - - - - - - -
20/08:30pm 23.3 N 10 12 1016.7 - 0.0 - - - - - - -
20/08:00pm 23.4 N 12 14 1016.4 - 0.0 - - - - - - -
20/07:30pm 23.5 N 12 14 1016.0 - 0.0 - - - - - - -
20/07:00pm 23.5 NNE 13 15 1015.6 - 0.0 - - - - - - -
20/06:30pm 23.4 N 13 16 1015.2 - 0.0 - - - - - - -
20/06:00pm 23.5 NNE 14 16 1014.6 - 0.0 - - - - - - -
20/05:30pm 23.6 NNE 13 15 1014.2 - 0.0 - - - - - - -
20/05:00pm 23.5 NNE 14 16 1014.0 - 0.0 - - - - - - -
20/04:30pm 23.5 NNE 14 16 1013.6 - 0.0 - - - - - - -
20/04:00pm 23.8 NNE 14 16 1013.3 - 0.0 - - - - - - -
20/03:30pm 23.5 NE 13 15 1013.1 - 0.0 - - - - - - -
20/03:00pm 23.5 NE 13 15 1013.3 - 0.0 - - - - - - -
20/02:30pm 23.4 NE 14 16 1013.6 - 0.0 - - - - - - -
20/02:00pm 23.4 NE 12 14 1014.0 - 0.0 - - - - - - -
20/01:30pm 23.6 NE 12 13 1014.6 - 0.0 - - - - - - -
20/01:00pm 24.1 E 9 11 1015.2 - 0.0 - - - - - - -
20/12:30pm 24.3 ESE 7 10 1015.8 - 0.0 - - - - - - -
20/12:00pm 24.8 E 6 9 1016.4 - 0.0 - - - - - - -
20/11:30am 25.0 SE 5 7 1017.0 - 0.0 - - - - - - -
20/11:00am 24.6 S 4 7 1017.6 - 0.0 - - - - - - -
20/10:30am 24.0 S 4 8 1017.9 - 0.0 - - - - - - -
20/10:00am 23.5 S 6 8 1018.1 - 0.0 - - - - - - -
20/09:30am 22.7 SSW 6 8 1018.3 - 0.0 - - - - - - -
20/09:00am 22.3 SW 6 8 1018.4 - 0.0 - - - - - - -
20/08:30am 21.9 SW 8 9 1018.5 - 0.0 - - - - - - -
20/08:00am 21.2 SW 9 11 1018.2 - 0.0 - - - - - - -
20/07:30am 21.0 WSW 10 11 1018.0 - 0.0 - - - - - - -
20/07:00am 20.6 SW 9 10 1017.5 - 0.0 - - - - - - -
20/06:30am 20.5 SW 10 11 1017.1 - 0.0 - - - - - - -
20/06:00am 20.6 WSW 9 10 1016.8 - 0.0 - - - - - - -
20/05:30am 20.6 WSW 8 9 1016.4 - 0.0 - - - - - - -
20/05:00am 20.5 SW 8 9 1016.2 - 0.0 - - - - - - -
20/04:30am 20.8 SW 8 10 1016.0 - 0.0 - - - - - - -
20/04:00am 20.7 SW 9 10 1016.0 - 0.0 - - - - - - -
20/03:30am 21.3 WSW 7 9 1015.9 - 0.0 - - - - - - -
20/03:00am 21.8 WSW 7 8 1016.1 - 0.0 - - - - - - -
20/02:30am 23.0 N 8 10 1016.2 - 0.0 - - - - - - -
20/02:00am 23.0 N 8 10 1016.5 - 0.0 - - - - - - -
20/01:30am 23.0 NE 8 9 1016.8 - 0.0 - - - - - - -
20/01:00am 23.1 NNE 7 9 1017.0 - 0.0 - - - - - - -
20/12:30am 22.9 NE 10 12 1017.3 - 0.0 - - - - - - -

Other Formats:

Comma delimited format used in spreadsheet applications
http://www.bom.gov.au/fwo/IDQ60701/IDQ60701.94295.axf

JavaScript Object Notation format (JSON) in row-major order
http://www.bom.gov.au/fwo/IDQ60701/IDQ60701.94295.json